createdAt,value
2022-12-06T00:03:15.608Z,97824.25
2022-12-06T00:08:17.331Z,97823.16
2022-12-06T00:13:18.932Z,97828.19
2022-12-06T00:18:20.500Z,97827.91
2022-12-06T00:23:22.076Z,97834.44
2022-12-06T00:28:23.637Z,97829.44
2022-12-06T00:33:25.698Z,97833.06
2022-12-06T00:38:28.535Z,97837.66
2022-12-06T00:43:30.884Z,97835.81
2022-12-06T00:48:32.567Z,97833.22
2022-12-06T00:53:34.152Z,97828.34
2022-12-06T00:58:35.785Z,97822.91
2022-12-06T01:03:37.842Z,97833.06
2022-12-06T01:08:40.503Z,97832.25
2022-12-06T01:13:43.348Z,97829.94
2022-12-06T01:18:46.279Z,97831.84
2022-12-06T01:23:48.467Z,97828.63
2022-12-06T01:28:50.355Z,97828.34
2022-12-06T01:33:52.276Z,97830.81
2022-12-06T01:38:56.591Z,97813.34
2022-12-06T01:43:58.198Z,97809.03
2022-12-06T01:49:11.412Z,97805.38
2022-12-06T01:54:16.047Z,97795.44
2022-12-06T01:59:18.209Z,97788.53
2022-12-06T02:04:20.594Z,97777.34
2022-12-06T02:09:23.226Z,97775.19
2022-12-06T02:14:32.552Z,97781.81
2022-12-06T02:19:46.238Z,97766.13
2022-12-06T02:24:53.787Z,97760.00
2022-12-06T02:30:18.839Z,97751.75
2022-12-06T02:35:35.072Z,97750.78
2022-12-06T02:40:41.384Z,97746.34
2022-12-06T02:45:52.637Z,97737.00
2022-12-06T02:51:01.727Z,97735.50
2022-12-06T02:56:03.485Z,97725.19
2022-12-06T03:01:12.783Z,97723.00
2022-12-06T03:06:23.467Z,97725.16
2022-12-06T03:11:33.759Z,97722.06
2022-12-06T03:16:45.941Z,97725.03
2022-12-06T03:22:03.170Z,97717.59
2022-12-06T03:27:09.653Z,97719.59
2022-12-06T03:32:14.827Z,97720.97
2022-12-06T03:37:21.595Z,97729.09
2022-12-06T03:42:23.253Z,97720.75
2022-12-06T03:47:38.084Z,97718.16
2022-12-06T03:52:39.703Z,97720.03
2022-12-06T03:57:41.326Z,97720.75
2022-12-06T04:02:42.993Z,97710.47
2022-12-06T04:07:44.591Z,97700.59
2022-12-06T04:13:01.554Z,97699.22
2022-12-06T04:18:13.529Z,97703.28
2022-12-06T04:23:15.411Z,97699.25
2022-12-06T04:28:35.530Z,97698.97
2022-12-06T04:33:55.703Z,97688.16
2022-12-06T04:38:57.577Z,97690.03
2022-12-06T04:43:59.241Z,97688.00
2022-12-06T04:49:00.875Z,97693.00
2022-12-06T04:54:02.485Z,97692.97
2022-12-06T04:59:04.079Z,97695.16
2022-12-06T05:04:05.866Z,97696.13
2022-12-06T05:09:07.670Z,97689.19
2022-12-06T05:14:09.325Z,97687.84
2022-12-06T05:19:13.172Z,97686.88
2022-12-06T05:24:14.749Z,97687.16
2022-12-06T05:29:16.482Z,97681.22
2022-12-06T05:34:18.060Z,97676.47
2022-12-06T05:39:19.615Z,97679.44
2022-12-06T05:44:21.206Z,97677.84
2022-12-06T05:49:22.808Z,97677.44
2022-12-06T05:54:24.403Z,97673.78
2022-12-06T05:59:25.993Z,97677.28
2022-12-06T06:04:27.576Z,97675.28
2022-12-06T06:09:29.150Z,97675.78
2022-12-06T06:14:30.730Z,97665.25
2022-12-06T06:19:32.297Z,97667.00
2022-12-06T06:24:38.722Z,97668.78
2022-12-06T06:29:45.135Z,97671.06
2022-12-06T06:34:47.206Z,97675.28
2022-12-06T06:39:48.912Z,97678.25
2022-12-06T06:44:51.803Z,97676.88
2022-12-06T06:49:53.415Z,97671.56
2022-12-06T06:54:55.201Z,97677.94
2022-12-06T06:59:56.783Z,97668.22
2022-12-06T07:04:58.421Z,97672.13
2022-12-06T07:10:00.368Z,97669.16
2022-12-06T07:15:02.197Z,97674.00
2022-12-06T07:20:04.914Z,97678.88
2022-12-06T07:25:06.694Z,97680.25
2022-12-06T07:30:08.774Z,97679.16
2022-12-06T07:35:10.815Z,97681.44
2022-12-06T07:40:14.603Z,97676.13
2022-12-06T07:45:16.211Z,97681.03
2022-12-06T07:50:20.574Z,97673.31
2022-12-06T07:55:22.215Z,97674.25
2022-12-06T08:00:23.966Z,97664.78
2022-12-06T08:05:25.538Z,97666.97
2022-12-06T08:10:27.676Z,97661.44
2022-12-06T08:15:29.361Z,97657.09
2022-12-06T08:20:31.029Z,97661.84
2022-12-06T08:25:32.675Z,97665.22
2022-12-06T08:30:34.351Z,97661.03
2022-12-06T08:35:39.186Z,97671.94
2022-12-06T08:40:41.015Z,97675.03
2022-12-06T08:45:43.497Z,97675.03
2022-12-06T08:50:45.063Z,97681.94
2022-12-06T08:56:02.213Z,97682.06
2022-12-06T09:01:16.543Z,97681.53
2022-12-06T09:06:19.747Z,97676.38
2022-12-06T09:11:21.380Z,97672.88
2022-12-06T09:16:24.015Z,97689.63
2022-12-06T09:21:30.402Z,97693.53
2022-12-06T09:26:32.439Z,97685.53
2022-12-06T09:31:35.557Z,97678.50
2022-12-06T09:36:43.201Z,97683.03
2022-12-06T09:42:00.074Z,97674.13
2022-12-06T09:47:07.686Z,97674.50
2022-12-06T09:52:15.601Z,97680.03
2022-12-06T09:57:25.064Z,97668.13
2022-12-06T10:02:47.807Z,97669.56
2022-12-06T10:08:01.621Z,97657.44
2022-12-06T10:13:07.056Z,97645.28
2022-12-06T10:18:33.480Z,97641.75
2022-12-06T10:23:47.441Z,97635.41
2022-12-06T10:29:08.734Z,97637.41
2022-12-06T10:34:41.999Z,97641.13
2022-12-06T10:39:57.885Z,97632.50
2022-12-06T10:45:37.139Z,97629.31
2022-12-06T10:50:41.076Z,97622.72
2022-12-06T10:55:49.843Z,97632.53
2022-12-06T11:00:58.281Z,97622.59
2022-12-06T11:06:02.498Z,97620.28
2022-12-06T11:11:06.710Z,97612.44
2022-12-06T11:16:34.409Z,97615.72
2022-12-06T11:21:48.858Z,97616.34
2022-12-06T11:27:04.619Z,97612.59
2022-12-06T11:32:07.883Z,97607.97
2022-12-06T11:37:18.082Z,97610.34
2022-12-06T11:42:25.313Z,97602.75
2022-12-06T11:47:27.083Z,97603.69
2022-12-06T11:52:45.442Z,97602.88
2022-12-06T11:58:13.122Z,97596.66
2022-12-06T12:03:30.331Z,97591.09
2022-12-06T12:08:32.905Z,97590.06
2022-12-06T12:13:44.168Z,97583.97
2022-12-06T12:18:54.062Z,97581.59
2022-12-06T12:23:56.249Z,97580.25
2022-12-06T12:29:06.154Z,97566.63
2022-12-06T12:34:26.711Z,97564.50
2022-12-06T12:39:50.333Z,97563.41
2022-12-06T12:44:57.648Z,97565.97
2022-12-06T12:50:14.657Z,97560.31
2022-12-06T12:55:30.610Z,97551.66
2022-12-06T13:00:37.437Z,97557.66
2022-12-06T13:05:46.529Z,97561.22
2022-12-06T13:10:58.494Z,97561.34
2022-12-06T13:16:07.308Z,97562.00
2022-12-06T13:21:22.351Z,97557.50
2022-12-06T13:26:33.517Z,97561.00
2022-12-06T13:31:39.799Z,97560.19
2022-12-06T13:36:41.465Z,97558.84
2022-12-06T13:42:01.558Z,97557.47
2022-12-06T13:47:27.977Z,97559.09
2022-12-06T13:52:41.858Z,97557.56
2022-12-06T13:57:43.491Z,97558.28
2022-12-06T14:02:46.465Z,97558.84
2022-12-06T14:07:48.231Z,97558.84
2022-12-06T14:12:59.285Z,97559.22
2022-12-06T14:18:05.442Z,97559.84
2022-12-06T14:23:45.423Z,97564.53
2022-12-06T14:28:48.986Z,97555.47
2022-12-06T14:33:52.070Z,97559.78
2022-12-06T14:39:17.268Z,97560.34
2022-12-06T14:44:20.648Z,97571.94
2022-12-06T14:49:42.331Z,97563.41
2022-12-06T14:54:45.535Z,97569.03
2022-12-06T15:05:32.225Z,97571.72
2022-12-06T15:10:34.697Z,97563.59
2022-12-06T15:15:45.845Z,97562.78
2022-12-06T15:20:48.891Z,97565.91
2022-12-06T15:25:50.465Z,97559.84
2022-12-06T15:30:52.624Z,97563.91
2022-12-06T15:35:54.632Z,97566.72
2022-12-06T15:40:56.981Z,97564.41
2022-12-06T15:46:01.463Z,97566.03
2022-12-06T15:51:09.257Z,97566.72
2022-12-06T15:56:20.608Z,97569.66
2022-12-06T16:01:26.464Z,97579.34
2022-12-06T16:06:29.401Z,97588.78
2022-12-06T16:11:31.026Z,97579.09
2022-12-06T16:16:33.930Z,97580.41
2022-12-06T16:21:51.076Z,97579.22
2022-12-06T16:26:52.664Z,97576.66
2022-12-06T16:31:54.476Z,97579.09
2022-12-06T16:37:02.000Z,97579.34
2022-12-06T16:42:04.471Z,97580.97
2022-12-06T16:47:07.821Z,97575.16
2022-12-06T16:52:09.540Z,97576.34
2022-12-06T16:57:12.141Z,97572.28
2022-12-06T17:02:26.426Z,97571.31
2022-12-06T17:07:28.541Z,97576.00
2022-12-06T17:12:30.104Z,97567.66
2022-12-06T17:17:31.894Z,97575.34
2022-12-06T17:22:34.806Z,97577.75
2022-12-06T17:27:38.372Z,97584.63
2022-12-06T17:32:40.142Z,97581.41
2022-12-06T17:37:41.711Z,97583.38
2022-12-06T17:43:01.403Z,97578.25
2022-12-06T17:48:03.059Z,97583.03
2022-12-06T17:53:04.845Z,97574.75
2022-12-06T17:58:06.926Z,97578.94
2022-12-06T18:03:08.545Z,97575.34
2022-12-06T18:08:10.248Z,97581.13
2022-12-06T18:13:11.862Z,97583.84
2022-12-06T18:18:13.523Z,97586.84
2022-12-06T18:23:15.101Z,97589.03
2022-12-06T18:28:16.707Z,97588.78
2022-12-06T18:33:21.032Z,97594.38
2022-12-06T18:38:24.206Z,97593.41
2022-12-06T18:43:25.779Z,97594.22
2022-12-06T18:48:28.028Z,97589.09
2022-12-06T18:53:30.010Z,97590.69
2022-12-06T18:58:31.689Z,97592.44
2022-12-06T19:03:33.255Z,97591.94
2022-12-06T19:08:34.902Z,97588.06
2022-12-06T19:13:36.468Z,97594.44
2022-12-06T19:18:38.110Z,97600.81
2022-12-06T19:23:39.810Z,97595.22
2022-12-06T19:28:41.747Z,97606.59
2022-12-06T19:33:46.264Z,97601.34
2022-12-06T19:38:48.253Z,97601.72
2022-12-06T19:44:08.435Z,97600.44
2022-12-06T19:49:11.656Z,97600.97
2022-12-06T19:54:30.934Z,97599.22
2022-12-06T19:59:35.127Z,97605.88
2022-12-06T20:04:39.425Z,97603.16
2022-12-06T20:09:41.330Z,97598.53
2022-12-06T20:14:45.827Z,97604.63
2022-12-06T20:19:48.994Z,97596.66
2022-12-06T20:24:50.606Z,97594.22
2022-12-06T20:29:52.216Z,97593.66
2022-12-06T20:34:53.789Z,97597.03
2022-12-06T20:39:55.583Z,97595.41
2022-12-06T20:44:57.159Z,97587.72
2022-12-06T20:49:59.167Z,97591.09
2022-12-06T20:55:00.936Z,97592.84
2022-12-06T21:00:07.383Z,97577.47
2022-12-06T21:05:09.517Z,97582.72
2022-12-06T21:10:11.672Z,97577.47
2022-12-06T21:15:13.261Z,97582.41
2022-12-06T21:20:14.892Z,97586.47
2022-12-06T21:25:16.614Z,97589.31
2022-12-06T21:30:18.237Z,97586.28
2022-12-06T21:35:19.894Z,97587.72
2022-12-06T21:40:21.454Z,97594.88
2022-12-06T21:45:23.032Z,97591.91
2022-12-06T21:50:24.613Z,97598.75
2022-12-06T21:55:26.610Z,97599.94
2022-12-06T22:00:28.229Z,97596.66
2022-12-06T22:05:29.804Z,97594.81
2022-12-06T22:10:31.403Z,97585.84
2022-12-06T22:15:32.980Z,97588.41
2022-12-06T22:20:34.549Z,97582.22
2022-12-06T22:25:39.571Z,97578.47
2022-12-06T22:30:41.149Z,97575.78
2022-12-06T22:35:43.364Z,97577.53
2022-12-06T22:40:44.943Z,97576.03
2022-12-06T22:45:46.526Z,97578.16
2022-12-06T22:50:48.094Z,97566.66
2022-12-06T22:55:49.679Z,97576.09
2022-12-06T23:00:51.244Z,97569.66
2022-12-06T23:05:58.207Z,97579.78
2022-12-06T23:11:06.172Z,97569.78
2022-12-06T23:16:11.898Z,97574.03
2022-12-06T23:21:15.319Z,97567.22
2022-12-06T23:26:28.888Z,97568.03
2022-12-06T23:31:33.517Z,97571.09
2022-12-06T23:36:36.057Z,97564.56
2022-12-06T23:41:37.981Z,97571.47
2022-12-06T23:46:41.078Z,97557.69
2022-12-06T23:51:42.800Z,97556.59
2022-12-06T23:56:45.132Z,97547.94
